This is the latest recevied weather packets stored in our database for station/object KA7KDX-4. If no packets are shown the sender has not sent any weather packets the latest 10 day(s).
| Time | Temp. | Humidity | Pressure | Rain* | Wind** | Luminosity | Snow |
|---|---|---|---|---|---|---|---|
| 1777642505 | 7.78° C | 52% | 1019 hPa | 0 mm | - | - | - |
| 1777642205 | 7.22° C | 52% | 1019.2 hPa | 0 mm | - | - | - |
| 1777641906 | 6.67° C | 53% | 1019.4 hPa | 0 mm | - | - | - |
| 1777641606 | 6.67° C | 53% | 1019.6 hPa | 0 mm | - | - | - |
| 1777641306 | 6.11° C | 55% | 1019.7 hPa | 0 mm | - | - | - |
| 1777641006 | 6.11° C | 55% | 1019.8 hPa | 0 mm | - | - | - |
| 1777640705 | 5.56° C | 56% | 1019.9 hPa | 0 mm | - | - | - |
| 1777640405 | 5.56° C | 57% | 1020 hPa | 0 mm | - | - | - |
| 1777640106 | 5.56° C | 59% | 1020 hPa | 0 mm | - | - | - |
| 1777639805 | 5° C | 59% | 1020 hPa | 0 mm | - | - | - |
| 1777639505 | 5° C | 59% | 1019.9 hPa | 0 mm | - | - | - |
| 1777639206 | 5.56° C | 59% | 1019.8 hPa | 0 mm | - | - | - |
| 1777638906 | 5.56° C | 57% | 1019.7 hPa | 0 mm | - | - | - |
| 1777638606 | 5.56° C | 57% | 1019.5 hPa | 0 mm | - | - | - |
| 1777638306 | 5.56° C | 57% | 1019.3 hPa | 0 mm | - | - | - |
| 1777638005 | 6.11° C | 58% | 1019.3 hPa | 0 mm | - | - | - |
| 1777637705 | 6.11° C | 59% | 1019.2 hPa | 0 mm | - | - | - |
| 1777637405 | 6.11° C | 58% | 1019 hPa | 0 mm | - | - | - |
| 1777637105 | 6.67° C | 56% | 1018.7 hPa | 0 mm | - | - | - |
| 1777636805 | 6.11° C | 56% | 1018.7 hPa | 0 mm | - | - | - |
| 1777636506 | 6.11° C | 58% | 1018.9 hPa | 0 mm | - | - | - |
| 1777636206 | 6.11° C | 58% | 1018.8 hPa | 0 mm | - | - | - |
| 1777635906 | 6.67° C | 57% | 1018.6 hPa | 0 mm | - | - | - |
| 1777635606 | 7.22° C | 55% | 1018.3 hPa | 0 mm | - | - | - |
| 1777635305 | 7.22° C | 53% | 1018.1 hPa | 0 mm | - | - | - |
* Rain latest hour (hover to see other rain measurements)
** Current wind speed in m/s (hover to see current wind gust speed)